createdAt,value
2019-03-01T00:01:48.251Z,51.63
2019-03-01T00:07:57.175Z,66.60
2019-03-01T00:13:51.005Z,55.07
2019-03-01T00:19:54.549Z,54.33
2019-03-01T00:25:33.060Z,55.43
2019-03-01T00:31:06.996Z,50.87
2019-03-01T00:37:10.227Z,57.30
2019-03-01T00:43:20.529Z,61.33
2019-03-01T00:48:23.241Z,54.50
2019-03-01T00:53:25.956Z,59.33
2019-03-01T00:58:28.673Z,60.87
2019-03-01T01:03:31.653Z,57.20
2019-03-01T01:08:34.424Z,51.50
2019-03-01T01:13:37.154Z,55.73
2019-03-01T01:18:39.952Z,54.97
2019-03-01T01:23:42.659Z,58.10
2019-03-01T01:28:45.353Z,55.43
2019-03-01T01:33:48.111Z,63.80
2019-03-01T01:38:50.812Z,67.77
2019-03-01T01:43:53.538Z,55.13
2019-03-01T01:48:56.245Z,55.23
2019-03-01T01:53:58.975Z,59.97
2019-03-01T01:59:01.661Z,56.20
2019-03-01T02:04:04.370Z,58.57
2019-03-01T02:09:20.303Z,52.70
2019-03-01T02:14:23.191Z,48.40
2019-03-01T02:19:26.023Z,53.73
2019-03-01T02:24:28.724Z,48.70
2019-03-01T02:29:31.454Z,48.33
2019-03-01T02:34:34.220Z,52.60
2019-03-01T02:39:36.942Z,44.07
2019-03-01T02:44:39.711Z,47.97
2019-03-01T02:49:42.411Z,40.33
2019-03-01T02:54:45.127Z,50.30
2019-03-01T02:59:47.842Z,44.97
2019-03-01T03:04:50.580Z,48.37
2019-03-01T03:09:53.386Z,49.53
2019-03-01T03:14:56.131Z,49.43
2019-03-01T03:19:58.842Z,48.70
2019-03-01T03:25:01.550Z,46.83
2019-03-01T03:30:05.994Z,49.27
2019-03-01T03:35:08.745Z,55.77
2019-03-01T03:40:11.537Z,53.60
2019-03-01T03:45:14.531Z,49.80
2019-03-01T03:50:17.320Z,50.17
2019-03-01T03:55:20.059Z,53.53
2019-03-01T04:00:22.872Z,56.27
2019-03-01T04:05:25.563Z,65.93
2019-03-01T04:10:28.274Z,55.13
2019-03-01T04:15:31.375Z,53.27
2019-03-01T04:20:34.124Z,55.63
2019-03-01T04:25:36.858Z,50.00
2019-03-01T04:30:39.792Z,57.17
2019-03-01T04:35:42.528Z,61.13
2019-03-01T04:40:45.255Z,55.50
2019-03-01T04:45:47.984Z,50.87
2019-03-01T04:50:50.706Z,58.60
2019-03-01T04:55:53.479Z,55.90
2019-03-01T05:00:56.709Z,54.50
2019-03-01T05:05:59.426Z,56.77
2019-03-01T05:11:02.207Z,57.10
2019-03-01T05:26:39.587Z,52.23
2019-03-01T05:31:42.328Z,54.17
2019-03-01T05:36:45.066Z,58.00
2019-03-01T05:41:47.801Z,56.47
2019-03-01T05:46:50.551Z,52.77
2019-03-01T05:51:53.261Z,54.43
2019-03-01T05:56:55.995Z,50.00
2019-03-01T06:03:01.267Z,57.93
2019-03-01T06:08:48.000Z,56.40
2019-03-01T06:14:15.430Z,55.87
2019-03-01T06:19:49.453Z,48.00
2019-03-01T06:25:46.169Z,57.97
2019-03-01T06:32:05.661Z,52.67
2019-03-01T06:43:35.280Z,60.10
2019-03-01T06:48:46.699Z,48.23
2019-03-01T06:53:49.408Z,54.70
2019-03-01T06:58:58.786Z,54.10
2019-03-01T07:04:06.953Z,52.20
2019-03-01T07:09:09.654Z,40.37
2019-03-01T07:14:12.369Z,50.80
2019-03-01T07:19:15.064Z,45.97
2019-03-01T07:24:17.823Z,48.30
2019-03-01T07:29:20.576Z,51.80
2019-03-01T07:34:23.309Z,52.90
2019-03-01T07:39:26.020Z,45.30
2019-03-01T07:44:28.763Z,53.03
2019-03-01T07:49:31.478Z,57.13
2019-03-01T07:54:34.203Z,48.67
2019-03-01T07:59:38.096Z,54.67
2019-03-01T08:04:41.539Z,61.33
2019-03-01T08:09:44.744Z,58.17
2019-03-01T08:14:48.486Z,65.80
2019-03-01T08:19:54.753Z,59.03
2019-03-01T08:24:55.813Z,63.20
2019-03-01T08:29:58.513Z,73.23
2019-03-01T08:35:01.257Z,76.50
2019-03-01T08:40:05.962Z,80.43
2019-03-01T08:45:11.288Z,85.90
2019-03-01T08:50:15.080Z,86.20
2019-03-01T08:55:18.127Z,111.57
2019-03-01T09:00:26.801Z,126.53
2019-03-01T09:05:28.729Z,125.60
2019-03-01T09:10:32.719Z,133.30
2019-03-01T09:15:36.856Z,188.53
2019-03-01T09:20:39.750Z,182.67
2019-03-01T09:25:44.681Z,182.83
2019-03-01T09:30:47.080Z,170.23
2019-03-01T09:36:14.506Z,186.07
2019-03-01T09:41:16.404Z,153.47
2019-03-01T09:46:20.948Z,132.07
2019-03-01T09:51:23.725Z,156.10
2019-03-01T09:56:26.469Z,137.90
2019-03-01T10:01:29.183Z,121.37
2019-03-01T10:06:38.092Z,162.07
2019-03-01T10:11:36.551Z,132.40
2019-03-01T10:16:39.446Z,127.80
2019-03-01T10:21:42.151Z,120.10
2019-03-01T10:26:44.862Z,113.07
2019-03-01T10:31:47.586Z,113.00
2019-03-01T10:36:50.395Z,104.83
2019-03-01T10:41:53.107Z,81.83
2019-03-01T10:46:55.822Z,96.23
2019-03-01T10:51:58.633Z,89.63
2019-03-01T10:57:01.364Z,65.83
2019-03-01T11:02:04.194Z,83.77
2019-03-01T11:07:06.909Z,38.03
2019-03-01T11:12:10.443Z,41.70
2019-03-01T11:17:13.146Z,44.77
2019-03-01T11:22:15.861Z,41.57
2019-03-01T11:27:18.779Z,51.00
2019-03-01T11:32:21.518Z,35.93
2019-03-01T11:37:24.217Z,33.03
2019-03-01T11:42:26.938Z,35.80
2019-03-01T11:47:29.645Z,28.67
2019-03-01T11:52:32.359Z,42.03
2019-03-01T11:57:35.108Z,30.27
2019-03-01T12:02:37.865Z,33.53
2019-03-01T12:07:40.560Z,31.87
2019-03-01T12:12:43.276Z,39.83
2019-03-01T12:17:45.981Z,29.80
2019-03-01T12:22:48.704Z,42.47
2019-03-01T12:27:51.435Z,33.97
2019-03-01T12:32:54.181Z,43.93
2019-03-01T12:37:56.902Z,31.63
2019-03-01T12:42:59.658Z,40.07
2019-03-01T12:48:02.409Z,35.00
2019-03-01T12:53:05.156Z,35.27
2019-03-01T12:58:07.883Z,32.77
2019-03-01T13:03:10.621Z,42.57
2019-03-01T13:08:15.830Z,42.13
2019-03-01T13:13:18.007Z,34.73
2019-03-01T13:18:20.743Z,27.43
2019-03-01T13:23:23.461Z,16.97
2019-03-01T13:28:26.205Z,16.80
2019-03-01T13:33:28.963Z,18.03
2019-03-01T13:38:33.995Z,21.93
2019-03-01T13:43:36.306Z,25.20
2019-03-01T13:48:39.100Z,12.87
2019-03-01T13:53:49.026Z,11.93
2019-03-01T13:58:47.893Z,10.70
2019-03-01T14:03:51.164Z,9.23
2019-03-01T14:08:53.922Z,6.33
2019-03-01T14:13:56.694Z,8.67
2019-03-01T14:19:00.389Z,20.03
2019-03-01T14:24:03.209Z,14.27
2019-03-01T14:29:05.941Z,6.10
2019-03-01T14:34:11.591Z,11.37
2019-03-01T14:39:16.386Z,6.07
2019-03-01T14:44:19.110Z,7.27
2019-03-01T14:49:22.747Z,3.43
2019-03-01T14:54:25.542Z,6.40
2019-03-01T14:59:42.588Z,19.03
2019-03-01T15:04:45.300Z,8.60
2019-03-01T15:09:48.074Z,7.80
2019-03-01T15:14:51.166Z,6.40
2019-03-01T15:19:53.877Z,11.80
2019-03-01T15:24:56.596Z,6.50
2019-03-01T15:29:59.330Z,8.03
2019-03-01T15:35:03.916Z,2.43
2019-03-01T15:40:07.424Z,5.17
2019-03-01T15:45:10.335Z,13.53
2019-03-01T15:50:13.316Z,8.43
2019-03-01T15:55:16.741Z,5.50
2019-03-01T16:00:21.956Z,5.93
2019-03-01T16:05:24.733Z,2.37
2019-03-01T16:10:27.437Z,4.67
2019-03-01T16:15:30.168Z,7.73
2019-03-01T16:20:34.971Z,7.13
2019-03-01T16:25:37.693Z,2.00
2019-03-01T16:30:40.400Z,4.67
2019-03-01T16:35:43.111Z,10.10
2019-03-01T16:40:45.808Z,5.90
2019-03-01T16:45:48.529Z,6.40
2019-03-01T16:50:51.566Z,7.17
2019-03-01T16:55:54.782Z,4.40
2019-03-01T17:00:57.584Z,5.80
2019-03-01T17:06:00.271Z,3.10
2019-03-01T17:11:05.690Z,5.53
2019-03-01T17:16:09.253Z,11.40
2019-03-01T17:21:12.565Z,3.43
2019-03-01T17:26:16.945Z,6.73
2019-03-01T17:31:19.669Z,7.83
2019-03-01T17:36:22.375Z,6.50
2019-03-01T17:41:25.098Z,3.77
2019-03-01T17:46:29.782Z,5.60
2019-03-01T17:51:32.424Z,2.93
